Time;durP1;ratioP1;P1;durP2;ratioP2;P2;SDS_P1;SDS_P2;PMS_P1;PMS_P2;Temp;Humidity;BMP_temperature;BMP_pressure;BME280_temperature;BME280_humidity;BME280_pressure;Samples;Min_cycle;Max_cycle;Signal;HPM_P1;HPM_P2
2023/10/29 00:01:28;;;;;;;4.90;1.42;;;;;;;;;;5011112;28;20470;-63
2023/10/29 00:03:53;;;;;;;3.67;1.17;;;;;;;;;;5002052;28;20010;-66
2023/10/29 00:06:18;;;;;;;8.60;1.80;;;;;;;;;;5007002;28;20022;-65
2023/10/29 00:08:43;;;;;;;11.00;1.42;;;;;;;;;;4999276;28;20481;-65
2023/10/29 00:11:11;;;;;;;7.72;1.58;;;;;;;;;;5006837;28;20377;-65
2023/10/29 00:13:36;;;;;;;4.38;1.27;;;;;;;;;;5005994;28;20042;-65
2023/10/29 00:16:01;;;;;;;8.77;1.40;;;;;;;;;;5008150;28;20042;-65
2023/10/29 00:18:26;;;;;;;6.25;1.42;;;;;;;;;;5002226;28;20465;-63
2023/10/29 00:20:52;;;;;;;3.10;1.20;;;;;;;;;;5008354;28;20014;-65
2023/10/29 00:23:17;;;;;;;9.35;2.10;;;;;;;;;;5000739;28;20010;-65
2023/10/29 00:25:42;;;;;;;5.70;1.38;;;;;;;;;;5003236;28;20014;-65
2023/10/29 00:28:07;;;;;;;6.07;1.55;;;;;;;;;;5004563;28;20028;-65
2023/10/29 00:30:33;;;;;;;6.20;1.98;;;;;;;;;;5004897;28;20025;-65
2023/10/29 00:32:58;;;;;;;6.13;1.88;;;;;;;;;;4999436;28;20026;-65
2023/10/29 00:35:23;;;;;;;3.65;1.58;;;;;;;;;;5002621;28;20092;-65
2023/10/29 00:37:49;;;;;;;6.90;1.75;;;;;;;;;;4989527;28;20382;-66
2023/10/29 00:40:14;;;;;;;6.03;1.70;;;;;;;;;;5022137;28;20014;-65
2023/10/29 00:42:39;;;;;;;6.50;1.90;;;;;;;;;;5006489;28;20033;-65
2023/10/29 00:45:07;;;;;;;7.93;1.42;;;;;;;;;;5008151;28;20046;-65
2023/10/29 00:47:33;;;;;;;6.05;1.95;;;;;;;;;;5000235;28;20019;-65
2023/10/29 00:49:58;;;;;;;6.57;1.83;;;;;;;;;;5004775;28;20433;-63
2023/10/29 00:52:23;;;;;;;5.68;1.70;;;;;;;;;;5008092;28;20048;-65
2023/10/29 00:54:49;;;;;;;9.48;1.42;;;;;;;;;;4998903;28;20108;-63
2023/10/29 00:57:14;;;;;;;8.38;1.65;;;;;;;;;;5008933;28;20366;-66
2023/10/29 00:59:40;;;;;;;6.82;1.40;;;;;;;;;;5006310;28;20048;-65
2023/10/29 01:02:05;;;;;;;5.18;1.35;;;;;;;;;;4999748;28;20022;-62
2023/10/29 01:04:30;;;;;;;7.03;1.75;;;;;;;;;;5012369;28;20047;-65
2023/10/29 01:06:55;;;;;;;6.28;1.38;;;;;;;;;;5005710;28;20044;-64
2023/10/29 01:09:21;;;;;;;7.68;1.90;;;;;;;;;;5003777;28;20408;-66
2023/10/29 01:11:46;;;;;;;10.38;1.77;;;;;;;;;;5005380;28;20018;-64
2023/10/29 01:14:11;;;;;;;4.30;1.27;;;;;;;;;;5001037;28;20022;-65
2023/10/29 01:16:37;;;;;;;4.78;1.35;;;;;;;;;;5001614;28;20510;-64
2023/10/29 01:19:02;;;;;;;3.22;1.40;;;;;;;;;;5008895;28;20456;-64
2023/10/29 01:21:27;;;;;;;5.90;1.35;;;;;;;;;;4999960;28;20476;-65
2023/10/29 01:23:53;;;;;;;6.10;2.03;;;;;;;;;;5003103;28;20525;-65
2023/10/29 01:26:18;;;;;;;6.00;1.45;;;;;;;;;;5000000;28;20869;-65
2023/10/29 01:28:44;;;;;;;9.57;1.88;;;;;;;;;;5004317;28;20014;-65
2023/10/29 01:31:10;;;;;;;4.32;1.20;;;;;;;;;;5001042;28;20022;-65
2023/10/29 01:33:36;;;;;;;10.73;1.48;;;;;;;;;;5004552;28;20010;-65
2023/10/29 01:36:01;;;;;;;5.80;1.45;;;;;;;;;;5022541;28;20099;-65
2023/10/29 01:38:26;;;;;;;12.00;2.05;;;;;;;;;;5009599;28;20505;-63
2023/10/29 01:40:52;;;;;;;6.38;1.42;;;;;;;;;;5001331;28;20022;-66
2023/10/29 01:43:17;;;;;;;11.40;1.52;;;;;;;;;;4999664;28;20025;-64
2023/10/29 01:45:42;;;;;;;9.82;1.92;;;;;;;;;;5002379;28;20442;-65
2023/10/29 01:50:38;;;;;;;4.82;1.48;;;;;;;;;;4985778;28;20109;-68
2023/10/29 01:53:04;;;;;;;7.38;2.00;;;;;;;;;;4970410;28;20105;-70
2023/10/29 01:55:29;;;;;;;7.32;1.67;;;;;;;;;;4986876;28;20014;-67
2023/10/29 01:57:55;;;;;;;7.53;1.65;;;;;;;;;;4987464;28;20021;-69
2023/10/29 02:00:20;;;;;;;6.47;1.40;;;;;;;;;;5005184;28;20014;-70
2023/10/29 02:02:47;;;;;;;4.43;1.63;;;;;;;;;;5008929;28;20097;-69
2023/10/29 02:05:12;;;;;;;10.75;1.88;;;;;;;;;;5007978;28;20925;-69
2023/10/29 02:07:37;;;;;;;3.75;1.20;;;;;;;;;;5009326;28;20132;-67
2023/10/29 02:10:03;;;;;;;11.05;1.55;;;;;;;;;;5009276;28;20097;-70
2023/10/29 02:12:28;;;;;;;5.30;1.42;;;;;;;;;;5005374;28;20010;-67
2023/10/29 02:14:53;;;;;;;6.43;1.38;;;;;;;;;;5006164;28;20473;-67
2023/10/29 02:17:19;;;;;;;7.80;2.35;;;;;;;;;;5007315;28;20034;-68
2023/10/29 02:19:44;;;;;;;7.38;1.40;;;;;;;;;;5005007;28;20413;-68
2023/10/29 02:22:09;;;;;;;7.68;1.50;;;;;;;;;;5007601;28;20087;-68
2023/10/29 02:24:34;;;;;;;7.97;1.85;;;;;;;;;;5008343;28;20014;-68
2023/10/29 02:26:59;;;;;;;4.95;1.20;;;;;;;;;;5005275;28;20080;-69
2023/10/29 02:29:25;;;;;;;13.55;1.90;;;;;;;;;;5006818;28;20064;-69
2023/10/29 02:31:50;;;;;;;7.40;1.63;;;;;;;;;;5007166;28;20072;-69
2023/10/29 02:34:15;;;;;;;3.97;1.60;;;;;;;;;;5007061;28;20026;-70
2023/10/29 02:36:40;;;;;;;6.15;1.23;;;;;;;;;;5006181;28;20060;-71
2023/10/29 02:39:06;;;;;;;6.82;1.73;;;;;;;;;;5006588;28;20022;-68
2023/10/29 02:41:31;;;;;;;13.00;1.63;;;;;;;;;;5006011;28;20022;-69
2023/10/29 02:43:58;;;;;;;10.82;1.48;;;;;;;;;;5000985;28;20037;-66
2023/10/29 02:46:23;;;;;;;10.48;1.55;;;;;;;;;;5006489;28;20030;-69
2023/10/29 02:48:48;;;;;;;7.75;1.38;;;;;;;;;;4988548;28;20109;-69
2023/10/29 02:51:14;;;;;;;5.57;1.10;;;;;;;;;;5006671;28;20097;-70
2023/10/29 02:53:39;;;;;;;5.50;1.30;;;;;;;;;;5006935;28;20022;-70
2023/10/29 02:56:04;;;;;;;8.05;1.60;;;;;;;;;;5005993;28;20014;-69
2023/10/29 02:58:29;;;;;;;9.43;1.38;;;;;;;;;;5006236;28;20148;-69
2023/10/29 03:01:08;;;;;;;3.83;1.27;;;;;;;;;;4989207;28;20026;-69
2023/10/29 03:03:37;;;;;;;10.63;1.45;;;;;;;;;;5008660;28;20520;-68
2023/10/29 03:06:03;;;;;;;4.32;1.52;;;;;;;;;;5007747;28;20022;-70
2023/10/29 03:08:28;;;;;;;4.28;1.15;;;;;;;;;;5008617;28;20076;-68
2023/10/29 03:10:53;;;;;;;4.40;1.38;;;;;;;;;;5008520;28;20026;-70
2023/10/29 03:13:18;;;;;;;4.15;1.33;;;;;;;;;;5006799;28;20045;-70
2023/10/29 03:15:43;;;;;;;7.55;1.50;;;;;;;;;;5003325;28;20474;-69
2023/10/29 03:18:09;;;;;;;9.15;1.55;;;;;;;;;;5006513;28;20045;-68
2023/10/29 03:20:34;;;;;;;9.00;1.45;;;;;;;;;;5005277;28;20042;-70
2023/10/29 03:22:59;;;;;;;4.45;1.27;;;;;;;;;;5006516;28;20101;-71
2023/10/29 03:25:24;;;;;;;5.80;1.27;;;;;;;;;;5006268;28;20095;-69
2023/10/29 03:27:49;;;;;;;4.65;1.40;;;;;;;;;;5007256;28;20389;-69
2023/10/29 03:30:15;;;;;;;5.07;1.40;;;;;;;;;;5005585;28;20025;-70
2023/10/29 03:32:40;;;;;;;4.82;1.20;;;;;;;;;;5008739;28;20018;-70
2023/10/29 03:35:05;;;;;;;5.60;1.27;;;;;;;;;;5006141;28;20022;-70
2023/10/29 03:37:31;;;;;;;3.33;1.00;;;;;;;;;;5006038;28;20034;-70
2023/10/29 03:39:56;;;;;;;3.05;1.08;;;;;;;;;;5006472;28;20021;-67
2023/10/29 03:42:21;;;;;;;3.13;1.38;;;;;;;;;;5005151;28;20120;-70
2023/10/29 03:44:46;;;;;;;6.50;1.35;;;;;;;;;;5000327;28;20029;-69
2023/10/29 03:47:12;;;;;;;8.35;1.60;;;;;;;;;;5005710;28;20017;-70
2023/10/29 03:49:37;;;;;;;9.32;1.50;;;;;;;;;;5006032;28;20468;-70
2023/10/29 03:52:02;;;;;;;4.13;1.50;;;;;;;;;;5006254;28;20728;-69
2023/10/29 03:54:28;;;;;;;6.63;1.20;;;;;;;;;;5007260;28;20014;-71
2023/10/29 03:56:53;;;;;;;7.20;1.65;;;;;;;;;;5006801;28;20022;-70
2023/10/29 03:59:18;;;;;;;4.20;1.60;;;;;;;;;;5007814;28;20089;-70
2023/10/29 04:01:43;;;;;;;9.10;1.63;;;;;;;;;;5008220;28;20096;-71
2023/10/29 04:04:08;;;;;;;5.97;1.20;;;;;;;;;;5011188;28;20025;-70
2023/10/29 04:06:34;;;;;;;4.95;1.40;;;;;;;;;;5008574;28;20051;-69
2023/10/29 04:08:59;;;;;;;8.88;1.60;;;;;;;;;;5009879;28;20396;-70
2023/10/29 04:11:24;;;;;;;8.07;1.58;;;;;;;;;;5011172;28;20018;-67
2023/10/29 04:13:50;;;;;;;3.92;1.20;;;;;;;;;;5006327;28;20018;-70
2023/10/29 04:16:15;;;;;;;3.05;1.33;;;;;;;;;;5006857;28;20026;-69
2023/10/29 04:18:40;;;;;;;6.43;2.05;;;;;;;;;;5008818;28;20029;-68
2023/10/29 04:21:06;;;;;;;7.63;1.70;;;;;;;;;;5007911;28;20030;-70
2023/10/29 04:23:31;;;;;;;7.47;1.60;;;;;;;;;;5009891;28;20026;-70
2023/10/29 04:25:56;;;;;;;10.20;1.90;;;;;;;;;;5009331;28;20025;-68
2023/10/29 04:28:22;;;;;;;8.48;1.58;;;;;;;;;;5011997;28;20057;-68
2023/10/29 04:30:48;;;;;;;6.68;1.92;;;;;;;;;;5010956;28;20492;-70
2023/10/29 04:33:13;;;;;;;7.57;1.40;;;;;;;;;;5010720;28;20493;-65
2023/10/29 04:35:38;;;;;;;8.77;1.45;;;;;;;;;;4995680;28;20022;-69
2023/10/29 04:38:04;;;;;;;5.80;1.70;;;;;;;;;;5009726;28;20064;-67
2023/10/29 04:40:29;;;;;;;6.35;1.50;;;;;;;;;;5010616;28;20068;-68
2023/10/29 04:42:54;;;;;;;4.07;1.75;;;;;;;;;;5010116;28;20486;-68
2023/10/29 04:45:19;;;;;;;4.05;1.30;;;;;;;;;;5002257;28;20014;-68
2023/10/29 04:47:45;;;;;;;7.68;1.92;;;;;;;;;;5009479;28;20026;-70
2023/10/29 04:50:11;;;;;;;4.80;1.60;;;;;;;;;;5008855;28;20128;-70
2023/10/29 04:52:36;;;;;;;4.63;1.58;;;;;;;;;;5009682;28;20489;-70
2023/10/29 04:55:01;;;;;;;7.63;1.67;;;;;;;;;;5008383;28;20014;-69
2023/10/29 04:57:27;;;;;;;9.52;1.73;;;;;;;;;;5008232;28;20106;-69
2023/10/29 04:59:53;;;;;;;4.75;1.63;;;;;;;;;;5008892;28;20560;-67
2023/10/29 05:02:18;;;;;;;5.38;1.50;;;;;;;;;;5009735;28;20024;-69
2023/10/29 05:04:43;;;;;;;6.13;1.35;;;;;;;;;;5008589;28;20509;-68
2023/10/29 05:07:08;;;;;;;6.03;1.70;;;;;;;;;;5008232;28;20030;-69
2023/10/29 05:09:34;;;;;;;3.95;1.30;;;;;;;;;;5009131;28;20040;-71
2023/10/29 05:11:59;;;;;;;5.70;1.52;;;;;;;;;;5005123;28;20090;-70
2023/10/29 05:14:25;;;;;;;8.38;2.50;;;;;;;;;;5007498;28;20465;-70
2023/10/29 05:16:51;;;;;;;6.63;1.67;;;;;;;;;;5004753;28;20018;-70
2023/10/29 05:19:16;;;;;;;11.20;1.60;;;;;;;;;;5000222;28;20022;-71
2023/10/29 05:21:42;;;;;;;5.38;1.40;;;;;;;;;;5010371;28;20071;-67
2023/10/29 05:24:07;;;;;;;8.23;1.48;;;;;;;;;;5011108;28;20440;-69
2023/10/29 05:26:33;;;;;;;7.32;1.50;;;;;;;;;;5009785;28;20135;-70
2023/10/29 05:28:58;;;;;;;5.25;1.52;;;;;;;;;;5010092;28;20022;-70
2023/10/29 05:31:23;;;;;;;5.00;1.52;;;;;;;;;;5010727;28;20021;-69
2023/10/29 05:33:48;;;;;;;4.05;1.30;;;;;;;;;;5009094;28;20021;-70
2023/10/29 05:36:14;;;;;;;2.97;1.08;;;;;;;;;;5007197;28;20032;-70
2023/10/29 05:38:39;;;;;;;6.03;1.40;;;;;;;;;;5007992;28;20475;-71
2023/10/29 05:41:04;;;;;;;9.13;1.77;;;;;;;;;;5009347;28;20029;-71
2023/10/29 05:43:29;;;;;;;6.10;1.30;;;;;;;;;;5002682;28;20022;-71
2023/10/29 05:45:54;;;;;;;5.00;1.30;;;;;;;;;;5006631;28;20032;-70
2023/10/29 05:48:20;;;;;;;8.07;1.42;;;;;;;;;;5007834;28;20029;-69
2023/10/29 05:50:45;;;;;;;6.15;1.38;;;;;;;;;;5008090;28;20032;-69
2023/10/29 05:53:10;;;;;;;3.08;1.20;;;;;;;;;;5007869;28;20026;-67
2023/10/29 05:55:36;;;;;;;4.60;1.60;;;;;;;;;;5007861;28;20014;-67
2023/10/29 05:58:01;;;;;;;7.65;1.50;;;;;;;;;;5007922;28;20021;-70
2023/10/29 06:00:27;;;;;;;6.43;1.38;;;;;;;;;;5008033;28;20665;-68
2023/10/29 06:02:53;;;;;;;5.53;1.42;;;;;;;;;;5008058;28;20014;-70
2023/10/29 06:05:18;;;;;;;3.10;1.10;;;;;;;;;;5002502;28;20030;-68
2023/10/29 06:07:44;;;;;;;5.20;1.52;;;;;;;;;;5002283;28;20153;-71
2023/10/29 06:10:15;;;;;;;6.60;1.40;;;;;;;;;;5006074;28;20390;-67
2023/10/29 06:12:41;;;;;;;4.05;1.20;;;;;;;;;;4998284;28;20014;-69
2023/10/29 06:15:15;;;;;;;5.53;1.30;;;;;;;;;;5002937;28;20092;-69
2023/10/29 06:17:41;;;;;;;6.68;1.65;;;;;;;;;;5000607;28;20018;-69
2023/10/29 06:20:09;;;;;;;4.25;1.38;;;;;;;;;;4999060;28;20026;-69
2023/10/29 06:22:34;;;;;;;4.20;1.33;;;;;;;;;;5005972;28;20080;-70
2023/10/29 06:24:59;;;;;;;3.22;1.10;;;;;;;;;;5002244;28;20521;-70
2023/10/29 06:27:24;;;;;;;6.80;1.60;;;;;;;;;;5003513;28;20514;-70
2023/10/29 06:29:49;;;;;;;6.53;1.83;;;;;;;;;;5002548;28;20093;-70
2023/10/29 06:32:15;;;;;;;8.13;1.30;;;;;;;;;;4998371;28;20436;-69
2023/10/29 06:34:40;;;;;;;2.45;1.20;;;;;;;;;;5002310;28;20081;-70
2023/10/29 06:37:05;;;;;;;5.50;1.60;;;;;;;;;;5002319;28;20032;-69
2023/10/29 06:39:31;;;;;;;5.28;1.45;;;;;;;;;;4998937;28;20050;-66
2023/10/29 06:41:56;;;;;;;2.20;1.13;;;;;;;;;;5000012;28;20025;-68
2023/10/29 06:44:21;;;;;;;2.83;1.10;;;;;;;;;;5001133;28;20018;-67
2023/10/29 06:46:46;;;;;;;3.92;1.52;;;;;;;;;;4997236;28;20113;-69
2023/10/29 06:49:12;;;;;;;5.75;1.13;;;;;;;;;;4998423;28;20021;-69
2023/10/29 06:51:38;;;;;;;2.72;1.30;;;;;;;;;;5005016;28;20064;-70
2023/10/29 06:54:03;;;;;;;1.98;1.00;;;;;;;;;;5001470;28;20022;-70
2023/10/29 06:56:28;;;;;;;4.00;1.25;;;;;;;;;;5003922;28;20024;-71
2023/10/29 06:58:53;;;;;;;3.90;1.33;;;;;;;;;;5000674;28;20084;-71
2023/10/29 07:01:19;;;;;;;6.43;1.35;;;;;;;;;;5008317;28;20021;-70
2023/10/29 07:03:44;;;;;;;3.08;1.00;;;;;;;;;;4993009;28;20029;-70
2023/10/29 07:06:10;;;;;;;7.18;1.05;;;;;;;;;;5005396;28;20018;-68
2023/10/29 07:08:35;;;;;;;2.83;1.00;;;;;;;;;;5007347;28;20018;-68
2023/10/29 07:11:02;;;;;;;6.45;1.15;;;;;;;;;;5008270;28;20029;-69
2023/10/29 07:13:27;;;;;;;2.47;0.90;;;;;;;;;;5004870;28;20397;-68
2023/10/29 07:15:53;;;;;;;3.08;1.15;;;;;;;;;;5007211;28;20408;-68
2023/10/29 07:18:19;;;;;;;2.55;1.10;;;;;;;;;;5007446;28;20037;-65
2023/10/29 07:20:45;;;;;;;3.97;1.00;;;;;;;;;;5008166;28;20045;-66
2023/10/29 07:23:10;;;;;;;12.63;1.50;;;;;;;;;;5007923;28;20049;-68
2023/10/29 07:25:35;;;;;;;8.95;1.50;;;;;;;;;;5006951;28;20064;-67
2023/10/29 07:28:01;;;;;;;2.03;1.05;;;;;;;;;;5007727;28;20030;-68
2023/10/29 07:30:26;;;;;;;5.30;0.90;;;;;;;;;;5008523;28;20018;-68
2023/10/29 07:32:51;;;;;;;1.40;0.70;;;;;;;;;;5008150;28;20068;-69
2023/10/29 07:35:17;;;;;;;2.58;0.88;;;;;;;;;;4998656;28;20425;-70
2023/10/29 07:37:42;;;;;;;3.63;1.20;;;;;;;;;;5009568;28;20389;-67
2023/10/29 07:40:08;;;;;;;4.53;1.10;;;;;;;;;;5011156;28;20655;-69
2023/10/29 07:42:33;;;;;;;9.20;1.05;;;;;;;;;;5009548;28;20381;-68
2023/10/29 07:44:59;;;;;;;9.13;1.20;;;;;;;;;;5009939;28;20686;-67
2023/10/29 07:47:24;;;;;;;4.70;1.05;;;;;;;;;;5010425;28;20481;-68
2023/10/29 07:49:49;;;;;;;2.15;0.90;;;;;;;;;;5030639;23;20117;-68
2023/10/29 07:52:15;;;;;;;4.38;0.95;;;;;;;;;;5009555;28;20022;-67
2023/10/29 07:54:41;;;;;;;3.10;1.17;;;;;;;;;;5010814;28;20527;-68
2023/10/29 07:57:06;;;;;;;6.95;1.20;;;;;;;;;;5011065;28;20534;-66
2023/10/29 07:59:31;;;;;;;2.33;0.90;;;;;;;;;;5014916;28;20119;-67
2023/10/29 08:01:57;;;;;;;6.72;1.00;;;;;;;;;;5010957;28;20041;-67
2023/10/29 08:04:22;;;;;;;2.95;0.80;;;;;;;;;;5011215;28;20025;-68
2023/10/29 08:06:48;;;;;;;9.18;1.88;;;;;;;;;;5009285;28;20029;-67
2023/10/29 08:09:13;;;;;;;3.13;1.00;;;;;;;;;;5011468;28;20017;-68
2023/10/29 08:11:38;;;;;;;4.22;1.10;;;;;;;;;;5014881;28;20030;-68
2023/10/29 08:14:03;;;;;;;4.93;0.95;;;;;;;;;;5008813;28;20442;-67
2023/10/29 08:16:29;;;;;;;4.13;0.90;;;;;;;;;;5006705;28;20029;-68
2023/10/29 08:18:54;;;;;;;4.10;1.02;;;;;;;;;;5015120;28;20038;-66
2023/10/29 08:21:19;;;;;;;3.58;0.88;;;;;;;;;;5010729;28;20056;-67
2023/10/29 08:23:44;;;;;;;1.90;0.65;;;;;;;;;;5010742;28;20018;-66
2023/10/29 08:26:10;;;;;;;3.10;1.00;;;;;;;;;;5011317;28;20029;-67
2023/10/29 08:28:36;;;;;;;2.70;0.88;;;;;;;;;;5005876;28;20040;-67
2023/10/29 08:31:02;;;;;;;2.22;1.02;;;;;;;;;;5010379;28;20148;-66
2023/10/29 08:33:27;;;;;;;1.98;0.90;;;;;;;;;;4992229;28;20068;-68
2023/10/29 08:35:52;;;;;;;8.55;0.93;;;;;;;;;;5009042;28;20017;-66
2023/10/29 08:38:17;;;;;;;3.50;1.05;;;;;;;;;;5008549;28;20370;-68
2023/10/29 08:40:43;;;;;;;2.53;1.08;;;;;;;;;;5015607;28;20388;-67
2023/10/29 08:43:08;;;;;;;6.05;1.10;;;;;;;;;;5009564;28;20366;-67
2023/10/29 08:45:33;;;;;;;4.78;1.00;;;;;;;;;;5007138;28;20551;-66
2023/10/29 08:47:59;;;;;;;2.58;0.80;;;;;;;;;;5009020;28;20404;-67
2023/10/29 08:50:24;;;;;;;3.35;1.25;;;;;;;;;;5009954;28;20049;-65
2023/10/29 08:52:49;;;;;;;2.17;0.73;;;;;;;;;;5008494;28;20032;-66
2023/10/29 08:55:15;;;;;;;3.70;0.90;;;;;;;;;;5023247;28;20018;-67
2023/10/29 08:57:40;;;;;;;1.83;0.80;;;;;;;;;;5015922;28;20100;-67
2023/10/29 09:00:06;;;;;;;2.83;0.82;;;;;;;;;;5014513;28;20095;-66
2023/10/29 09:02:31;;;;;;;2.25;0.98;;;;;;;;;;5001641;28;20106;-67
2023/10/29 09:04:57;;;;;;;1.67;0.75;;;;;;;;;;5009051;28;20025;-68
2023/10/29 09:07:25;;;;;;;2.72;1.10;;;;;;;;;;5013553;28;20030;-66
2023/10/29 09:09:50;;;;;;;3.15;1.00;;;;;;;;;;5006163;28;20029;-66
2023/10/29 09:12:16;;;;;;;2.28;1.10;;;;;;;;;;5009426;28;20017;-67
2023/10/29 09:14:41;;;;;;;4.85;0.90;;;;;;;;;;5011304;28;20030;-66
2023/10/29 09:17:06;;;;;;;4.07;1.02;;;;;;;;;;5007448;28;20029;-68
2023/10/29 09:19:32;;;;;;;6.40;1.08;;;;;;;;;;5010287;28;20208;-67
2023/10/29 09:21:57;;;;;;;2.47;0.88;;;;;;;;;;5004171;28;20033;-68
2023/10/29 09:24:23;;;;;;;2.00;1.00;;;;;;;;;;5013308;28;20060;-65
2023/10/29 09:26:51;;;;;;;2.20;1.00;;;;;;;;;;5009220;28;20044;-66
2023/10/29 09:29:16;;;;;;;5.10;0.88;;;;;;;;;;5013489;28;20014;-68
2023/10/29 09:31:42;;;;;;;2.20;0.80;;;;;;;;;;5011744;28;20095;-68
2023/10/29 09:34:07;;;;;;;7.65;1.80;;;;;;;;;;5008639;28;20084;-68
2023/10/29 09:36:33;;;;;;;1.55;1.00;;;;;;;;;;5007854;28;20109;-66
2023/10/29 09:38:58;;;;;;;2.28;1.10;;;;;;;;;;5015325;28;20053;-67
2023/10/29 09:41:23;;;;;;;2.83;1.05;;;;;;;;;;5012342;28;20030;-68
2023/10/29 09:43:51;;;;;;;2.75;1.00;;;;;;;;;;5014155;28;20418;-67
2023/10/29 09:46:18;;;;;;;3.50;1.00;;;;;;;;;;5007942;28;20105;-68
2023/10/29 09:48:44;;;;;;;7.10;1.15;;;;;;;;;;5009697;28;20021;-67
2023/10/29 09:51:12;;;;;;;2.28;0.88;;;;;;;;;;5023547;28;20085;-65
2023/10/29 09:53:39;;;;;;;7.95;0.93;;;;;;;;;;5030780;28;20025;-66
2023/10/29 09:56:08;;;;;;;9.80;0.80;;;;;;;;;;5021652;28;20030;-67
2023/10/29 09:58:34;;;;;;;12.55;1.15;;;;;;;;;;5015281;28;20022;-66
2023/10/29 10:01:04;;;;;;;3.10;1.02;;;;;;;;;;5008618;28;20136;-68
2023/10/29 10:03:30;;;;;;;2.30;0.85;;;;;;;;;;5014314;28;20029;-67
2023/10/29 10:05:58;;;;;;;2.40;1.13;;;;;;;;;;5010158;28;20025;-68
2023/10/29 10:08:28;;;;;;;3.03;1.10;;;;;;;;;;5008201;28;20465;-64
2023/10/29 10:10:53;;;;;;;3.17;0.88;;;;;;;;;;5008563;28;20038;-66
2023/10/29 10:13:34;;;;;;;2.70;1.02;;;;;;;;;;4992967;28;20024;-67
2023/10/29 10:16:14;;;;;;;1.98;0.98;;;;;;;;;;5009671;28;20026;-68
2023/10/29 10:18:50;;;;;;;3.50;0.95;;;;;;;;;;5016907;28;20427;-68
2023/10/29 10:21:15;;;;;;;4.13;1.23;;;;;;;;;;5008636;28;20034;-68
2023/10/29 10:23:48;;;;;;;6.63;0.85;;;;;;;;;;5007725;28;20014;-67
2023/10/29 10:26:14;;;;;;;1.90;0.82;;;;;;;;;;4988068;28;20074;-68
2023/10/29 10:28:59;;;;;;;1.30;0.80;;;;;;;;;;5007515;28;20103;-67
2023/10/29 10:31:27;;;;;;;4.93;0.77;;;;;;;;;;5003536;28;20033;-67
2023/10/29 10:34:09;;;;;;;7.53;1.00;;;;;;;;;;5007491;28;20061;-68
2023/10/29 10:36:34;;;;;;;1.88;0.85;;;;;;;;;;5003474;28;20206;-67
2023/10/29 10:38:59;;;;;;;3.10;0.80;;;;;;;;;;5007745;28;20018;-67
2023/10/29 10:41:44;;;;;;;2.67;0.93;;;;;;;;;;5002759;28;20025;-66
2023/10/29 10:44:13;;;;;;;1.15;0.60;;;;;;;;;;4991908;28;20058;-67
2023/10/29 10:46:46;;;;;;;2.08;0.70;;;;;;;;;;5017620;28;20025;-67
2023/10/29 10:49:12;;;;;;;3.70;0.85;;;;;;;;;;5007082;28;20025;-67
2023/10/29 10:51:39;;;;;;;2.33;0.90;;;;;;;;;;5008812;28;20033;-67
2023/10/29 10:54:04;;;;;;;8.07;1.90;;;;;;;;;;5009224;28;20022;-67
2023/10/29 10:56:31;;;;;;;1.85;0.90;;;;;;;;;;5010367;28;20037;-68
2023/10/29 10:58:58;;;;;;;2.60;0.73;;;;;;;;;;5007524;28;20165;-67
2023/10/29 11:01:24;;;;;;;1.48;0.70;;;;;;;;;;5009648;28;20026;-67
2023/10/29 11:03:50;;;;;;;2.85;0.80;;;;;;;;;;5008050;28;20033;-69
2023/10/29 11:06:16;;;;;;;4.13;1.48;;;;;;;;;;5007836;28;20018;-67
2023/10/29 11:08:41;;;;;;;3.17;0.95;;;;;;;;;;5008811;28;20103;-69
2023/10/29 11:11:07;;;;;;;4.88;0.82;;;;;;;;;;5022421;28;20013;-68
2023/10/29 11:13:32;;;;;;;2.60;0.93;;;;;;;;;;5015614;28;20041;-70
2023/10/29 11:16:01;;;;;;;3.92;0.80;;;;;;;;;;5011647;28;20036;-69
2023/10/29 11:18:31;;;;;;;2.35;0.85;;;;;;;;;;5010817;28;20112;-67
2023/10/29 11:20:59;;;;;;;4.00;1.00;;;;;;;;;;5002661;28;20024;-69
2023/10/29 11:23:29;;;;;;;2.28;0.65;;;;;;;;;;5010172;28;20037;-70
2023/10/29 11:26:12;;;;;;;3.08;0.90;;;;;;;;;;5017944;28;20687;-67
2023/10/29 11:28:42;;;;;;;6.70;0.80;;;;;;;;;;4999289;28;20516;-67
2023/10/29 11:31:12;;;;;;;2.55;0.75;;;;;;;;;;5022560;28;20076;-69
2023/10/29 11:33:40;;;;;;;2.78;1.10;;;;;;;;;;5019507;28;20512;-70
2023/10/29 11:36:24;;;;;;;1.60;1.00;;;;;;;;;;5018002;28;20057;-69
2023/10/29 11:38:50;;;;;;;3.88;1.00;;;;;;;;;;5024600;28;20045;-68
2023/10/29 11:41:38;;;;;;;1.63;0.90;;;;;;;;;;5033630;28;20018;-70
2023/10/29 11:44:24;;;;;;;2.22;1.13;;;;;;;;;;5015735;28;20014;-72
2023/10/29 11:46:56;;;;;;;3.83;0.90;;;;;;;;;;5030504;28;20122;-69
2023/10/29 11:49:25;;;;;;;1.35;0.80;;;;;;;;;;5019884;28;20033;-69
2023/10/29 11:51:55;;;;;;;2.50;0.75;;;;;;;;;;5032326;28;20085;-70
2023/10/29 11:54:21;;;;;;;4.72;0.80;;;;;;;;;;5026427;28;20014;-70
2023/10/29 11:56:48;;;;;;;1.48;0.82;;;;;;;;;;5025333;28;20309;-69
2023/10/29 11:59:13;;;;;;;8.52;1.00;;;;;;;;;;5034236;28;21448;-71
2023/10/29 12:01:39;;;;;;;1.50;0.75;;;;;;;;;;5024090;28;20121;-72
2023/10/29 12:04:04;;;;;;;5.28;1.10;;;;;;;;;;5020984;28;20028;-68
2023/10/29 12:06:43;;;;;;;3.65;0.98;;;;;;;;;;5011647;28;20486;-69
2023/10/29 12:09:18;;;;;;;4.32;1.30;;;;;;;;;;5010737;28;20052;-70
2023/10/29 12:11:44;;;;;;;4.25;1.20;;;;;;;;;;5016546;28;20092;-67
2023/10/29 12:14:09;;;;;;;3.95;1.30;;;;;;;;;;5009990;28;20108;-69
2023/10/29 12:16:35;;;;;;;3.40;1.40;;;;;;;;;;5013550;28;20083;-68
2023/10/29 12:19:00;;;;;;;5.90;1.20;;;;;;;;;;5014512;28;20021;-69
2023/10/29 12:21:25;;;;;;;4.35;1.45;;;;;;;;;;5011832;28;20038;-69
2023/10/29 12:23:51;;;;;;;4.00;1.10;;;;;;;;;;5009153;28;20026;-69
2023/10/29 12:26:17;;;;;;;3.33;1.13;;;;;;;;;;5009485;28;20037;-70
2023/10/29 12:28:42;;;;;;;2.45;0.95;;;;;;;;;;5008630;28;20459;-67
2023/10/29 12:31:27;;;;;;;2.10;0.73;;;;;;;;;;5009599;28;20026;-70
2023/10/29 12:33:56;;;;;;;2.85;0.90;;;;;;;;;;5010673;28;20025;-70
2023/10/29 12:36:23;;;;;;;3.45;0.85;;;;;;;;;;5007221;28;20045;-69
2023/10/29 12:38:48;;;;;;;4.80;0.90;;;;;;;;;;5019732;28;20022;-69
2023/10/29 12:41:15;;;;;;;2.85;0.75;;;;;;;;;;5013659;28;20094;-69
2023/10/29 12:43:42;;;;;;;4.20;0.90;;;;;;;;;;4993113;28;20021;-71
2023/10/29 12:46:25;;;;;;;2.92;0.90;;;;;;;;;;5009377;28;20497;-70
2023/10/29 12:49:07;;;;;;;6.07;0.90;;;;;;;;;;5014381;28;20033;-67
2023/10/29 12:51:40;;;;;;;4.03;1.02;;;;;;;;;;5010878;28;20049;-72
2023/10/29 12:54:12;;;;;;;3.60;1.10;;;;;;;;;;5017435;28;20069;-70
2023/10/29 12:56:58;;;;;;;3.22;0.82;;;;;;;;;;4999892;28;20552;-69
2023/10/29 12:59:38;;;;;;;1.08;0.75;;;;;;;;;;5006260;28;20049;-68
2023/10/29 13:02:12;;;;;;;2.65;0.73;;;;;;;;;;4974931;28;20033;-68
2023/10/29 13:04:57;;;;;;;1.88;0.82;;;;;;;;;;5000740;28;20018;-67
2023/10/29 13:07:22;;;;;;;0.93;0.60;;;;;;;;;;5010557;28;20025;-67
2023/10/29 13:09:52;;;;;;;3.05;0.90;;;;;;;;;;5011111;28;20093;-70
2023/10/29 13:12:17;;;;;;;1.88;0.70;;;;;;;;;;5010055;28;20013;-70
2023/10/29 13:14:46;;;;;;;8.02;1.00;;;;;;;;;;5009245;28;20089;-70
2023/10/29 13:17:14;;;;;;;1.50;0.60;;;;;;;;;;5009029;28;20084;-68
2023/10/29 13:19:43;;;;;;;1.65;0.70;;;;;;;;;;5010064;28;20109;-69
2023/10/29 13:22:09;;;;;;;2.28;0.95;;;;;;;;;;4989091;28;20034;-70
2023/10/29 13:24:37;;;;;;;2.13;0.80;;;;;;;;;;5009144;28;20017;-69
2023/10/29 13:27:08;;;;;;;3.00;0.70;;;;;;;;;;5016438;28;20048;-70
2023/10/29 13:29:37;;;;;;;1.70;0.68;;;;;;;;;;5006122;28;20014;-69
2023/10/29 13:32:06;;;;;;;4.22;0.80;;;;;;;;;;4990437;28;20454;-68
2023/10/29 13:34:54;;;;;;;8.63;0.75;;;;;;;;;;5001433;28;20049;-69
2023/10/29 13:37:20;;;;;;;2.13;0.73;;;;;;;;;;4983854;28;20029;-69
2023/10/29 13:39:45;;;;;;;6.63;0.98;;;;;;;;;;5007069;28;20177;-67
2023/10/29 13:42:16;;;;;;;3.43;1.50;;;;;;;;;;5006691;28;20057;-69
2023/10/29 13:45:04;;;;;;;2.65;1.45;;;;;;;;;;5010189;28;20279;-69
2023/10/29 13:47:32;;;;;;;1.80;0.77;;;;;;;;;;4932655;28;20042;-68
2023/10/29 13:49:57;;;;;;;1.75;0.63;;;;;;;;;;5021478;23;20061;-66
2023/10/29 13:52:23;;;;;;;2.63;0.85;;;;;;;;;;5015379;28;20037;-64
2023/10/29 13:54:48;;;;;;;1.20;0.75;;;;;;;;;;5012094;28;20067;-66
2023/10/29 13:57:14;;;;;;;1.48;0.65;;;;;;;;;;5017452;28;20514;-68
2023/10/29 13:59:39;;;;;;;4.95;0.80;;;;;;;;;;5014259;28;20029;-64
2023/10/29 14:02:05;;;;;;;3.50;1.02;;;;;;;;;;5011572;28;20473;-64
2023/10/29 14:04:30;;;;;;;3.88;0.93;;;;;;;;;;5010305;28;20014;-67
2023/10/29 14:06:55;;;;;;;3.22;1.15;;;;;;;;;;5017724;28;20401;-66
2023/10/29 14:09:24;;;;;;;7.72;0.88;;;;;;;;;;5012854;28;20009;-62
2023/10/29 14:11:49;;;;;;;;;;;;;;;;;;5008773;28;20029;-66
2023/10/29 14:14:14;;;;;;;3.28;1.00;;;;;;;;;;5008490;28;19916;-65
2023/10/29 14:16:40;;;;;;;1.23;0.60;;;;;;;;;;5008225;28;20492;-65
2023/10/29 14:19:06;;;;;;;1.70;1.00;;;;;;;;;;5009683;28;20037;-65
2023/10/29 14:21:32;;;;;;;2.72;1.25;;;;;;;;;;5014833;28;20075;-65
2023/10/29 14:23:57;;;;;;;4.22;1.45;;;;;;;;;;5012412;28;20018;-63
2023/10/29 14:26:23;;;;;;;4.13;1.23;;;;;;;;;;5006729;28;20033;-66
2023/10/29 14:28:48;;;;;;;3.33;1.13;;;;;;;;;;5009844;28;20076;-62
2023/10/29 14:31:14;;;;;;;2.53;1.20;;;;;;;;;;5013649;28;20489;-66
2023/10/29 14:33:39;;;;;;;4.55;1.20;;;;;;;;;;5013214;28;20056;-65
2023/10/29 14:36:04;;;;;;;4.10;1.30;;;;;;;;;;5011667;28;20087;-65
2023/10/29 14:38:30;;;;;;;4.63;0.98;;;;;;;;;;5009278;28;20049;-67
2023/10/29 14:40:55;;;;;;;4.13;1.05;;;;;;;;;;5009213;28;20030;-64
2023/10/29 14:43:21;;;;;;;4.05;1.13;;;;;;;;;;5007971;28;20036;-65